Blue Dome, Idaho
Current Conditions -  °F | °C
As of 6:55 AM on Wednesday 26 Nov 2014 (Local Time) from KLLJ Reporting Station
Overcast Overcast  
Wind Chill: 38°   Ceiling: 6000
Heat Index: 41°   Visibility: 10mi
Dew Point: 33°   Wind: 5mph
Humidity: 73%   Direction: NA
Pressure: 30.21"   Gusts: NA
Location:  44.5987°N, 113.355°W
Report Text: KLLJ 261355Z AUTO VRB04KT 10SM OVC060 05/01 A3021 RMK AO2 SLP233 T00500006
Loading
Personal Weather Stations






























Interactive Weather Map New forecast layout! Learn more

10-Day Weather Forecast

Advertisements
Track Severe Weather on mobile